Lynchburg Regional Preston Glenn Field Lynchburg US
ICAO: KLYH
IATA: LYH
Category: Medium
Scheduled Services: Yes

Elevation: 938 ft
TransAlt. 18000 ft.

Airport Communications:
ROANOKE APP/DEP:125.47
ATIS:119.8
CTAF:127.65
GND:121.9
LEESBURG RDO:109.2
TWR:127.65
UNICOM:122.95

KLYH Zoom In..

If you have problems with the map follow the link
https://www.worldairports.se/pages/airport.php?
ICAO=KLYH

Runways:

(A) RW 04 length 7100 ft width 150 ft
ILS 110.10 / hdg 36

(B) RW 17 length 3386 ft width 75 ft
---- / hdg 170

(C) RW 22 length 7100 ft width 150 ft
---- / hdg 216

(D) RW 35 length 3386 ft width 75 ft
---- / hdg 350

Location; KLYH
Day. 07 / Time. 08.54 Zulu
* Altimeter: 30.21
* Temperature: 02° c. 35.6°f.
* Wind from: 330° Speed 04 kn.
Dewpoint: 00° c.
Visibility: 10 Statute Miles.
Clouds: Scattered 5500 ft.

KLYH 070854Z AUTO 33004KT 10SM SCT055 02/00 A3021 RMK AO2 SLP233 T00170000 53012


Wind From 330°
Speed 04 kn.

 
 
jpsmedia worldairports.se 2019   terms of use